Caerphilly, United Kingdom
Current Conditions -  °F | °C
As of 11:20 AM on Saturday 25 Oct 2014 (Local Time) from EGFF Reporting Station
Broken Clouds Broken Clouds  
Wind Chill: 55°   Ceiling: 4300
Heat Index: 55°   Visibility: 6mi
Dew Point: 50°   Wind: 13mph
Humidity: 82%   Direction: 230°SW
Pressure: 30.06"   Gusts: NA
Location:  51.58°N, 3.22°W
Report Text: EGFF 251020Z AUTO 23011KT 9999 BKN043 13/10 Q1018
Loading
Personal Weather Stations






























Interactive Weather Map
Tropical Storm Tracking
New forecast layout! Learn more

10-Day Weather Forecast

Advertisements
Track Severe Weather on mobile